Time;durP1;ratioP1;P1;durP2;ratioP2;P2;SDS_P1;SDS_P2;PMS_P1;PMS_P2;Temp;Humidity;BMP_temperature;BMP_pressure;BME280_temperature;BME280_humidity;BME280_pressure;Samples;Min_cycle;Max_cycle;Signal;HPM_P1;HPM_P2
2021/09/10 00:00:30;;;;;;;15.15;4.43;;;486.70;1408.00;;;;;;5094688;28;20106;-64
2021/09/10 00:02:56;;;;;;;9.18;3.67;;;486.60;1408.00;;;;;;5094933;28;20030;-64
2021/09/10 00:05:22;;;;;;;12.70;3.70;;;486.60;1408.00;;;;;;5094479;28;20032;-63
2021/09/10 00:07:47;;;;;;;12.43;4.03;;;486.60;1408.00;;;;;;5093548;28;20097;-64
2021/09/10 00:10:13;;;;;;;11.10;3.90;;;486.60;1408.00;;;;;;5094328;28;20056;-64
2021/09/10 00:12:39;;;;;;;10.95;4.00;;;486.50;1408.00;;;;;;5094610;28;20066;-63
2021/09/10 00:15:05;;;;;;;9.32;3.97;;;486.50;1408.00;;;;;;5094748;28;20152;-64
2021/09/10 00:17:31;;;;;;;5.38;3.60;;;486.50;1433.60;;;;;;5092909;28;20077;-63
2021/09/10 00:19:57;;;;;;;10.98;4.30;;;486.40;1433.60;;;;;;5092579;28;20384;-64
2021/09/10 00:22:23;;;;;;;5.65;3.33;;;486.40;1433.60;;;;;;5094595;28;20023;-65
2021/09/10 00:24:48;;;;;;;6.15;3.75;;;486.40;1433.60;;;;;;5093027;28;20035;-64
2021/09/10 00:27:14;;;;;;;9.68;3.45;;;486.40;1433.60;;;;;;5094512;28;20378;-64
2021/09/10 00:29:41;;;;;;;7.18;3.58;;;486.40;1433.60;;;;;;5094400;28;20036;-63
2021/09/10 00:32:07;;;;;;;7.60;3.50;;;486.40;1433.60;;;;;;5094444;28;20024;-64
2021/09/10 00:34:32;;;;;;;8.45;3.33;;;486.40;1433.60;;;;;;5094183;28;20031;-64
2021/09/10 00:36:58;;;;;;;12.27;4.57;;;486.40;1433.60;;;;;;5094388;28;20016;-63
2021/09/10 00:39:24;;;;;;;13.38;3.38;;;461.70;1433.60;;;;;;5094254;28;20028;-64
2021/09/10 00:41:49;;;;;;;9.32;3.70;;;461.70;1433.60;;;;;;5094282;28;20058;-64
2021/09/10 00:44:15;;;;;;;5.15;3.60;;;486.40;1433.60;;;;;;5094049;28;20378;-64
2021/09/10 00:46:42;;;;;;;8.85;3.50;;;486.40;1433.60;;;;;;5094174;28;20034;-64
2021/09/10 00:49:09;;;;;;;8.10;3.33;;;486.40;1459.20;;;;;;5093940;28;20024;-64
2021/09/10 00:51:35;;;;;;;11.07;4.00;;;486.40;1459.20;;;;;;5093832;28;20504;-63
2021/09/10 00:54:01;;;;;;;11.80;3.85;;;486.40;1459.20;;;;;;5094162;28;20028;-64
2021/09/10 00:56:27;;;;;;;12.30;5.43;;;486.40;1459.20;;;;;;5094087;28;20441;-64
2021/09/10 00:58:53;;;;;;;8.75;3.88;;;486.40;1459.20;;;;;;5093733;28;20024;-64
2021/09/10 01:01:19;;;;;;;11.55;3.95;;;486.40;1459.20;;;;;;5093858;28;20031;-64
2021/09/10 01:03:45;;;;;;;11.52;3.58;;;486.40;1459.20;;;;;;5092573;28;20040;-63
2021/09/10 01:06:11;;;;;;;7.07;3.65;;;486.40;1433.60;;;;;;5093987;28;20031;-64
2021/09/10 01:08:40;;;;;;;9.10;3.67;;;486.40;1433.60;;;;;;5093592;28;20115;-64
2021/09/10 01:11:06;;;;;;;10.45;3.97;;;486.40;1433.60;;;;;;5093579;28;20052;-63
2021/09/10 01:13:33;;;;;;;12.50;3.90;;;486.40;1433.60;;;;;;5093892;28;20029;-64
2021/09/10 01:16:00;;;;;;;8.88;4.30;;;486.40;1433.60;;;;;;5093810;28;20028;-64
2021/09/10 01:18:25;;;;;;;12.35;4.35;;;486.40;1433.60;;;;;;5093917;28;20095;-64
2021/09/10 01:20:51;;;;;;;7.60;4.00;;;486.40;1433.60;;;;;;5093688;28;20059;-64
2021/09/10 01:23:17;;;;;;;12.68;4.50;;;461.70;1433.60;;;;;;5091717;28;20028;-64
2021/09/10 01:25:43;;;;;;;11.32;4.30;;;461.60;1433.60;;;;;;5092232;28;20028;-63
2021/09/10 01:28:09;;;;;;;10.88;4.22;;;461.60;1433.60;;;;;;5091710;28;20024;-63
2021/09/10 01:30:36;;;;;;;7.45;4.05;;;461.60;1459.20;;;;;;5093732;28;20043;-64
2021/09/10 01:33:05;;;;;;;7.07;4.40;;;461.60;1459.20;;;;;;5097653;28;20024;-64
2021/09/10 01:35:31;;;;;;;9.75;4.65;;;461.50;1459.20;;;;;;5096252;28;20444;-64
2021/09/10 01:37:57;;;;;;;11.60;4.40;;;461.50;1459.20;;;;;;5096888;28;20115;-63
2021/09/10 01:40:24;;;;;;;8.82;3.80;;;461.50;1459.20;;;;;;5097061;28;20381;-64
2021/09/10 01:42:50;;;;;;;7.75;3.70;;;461.50;1484.80;;;;;;5097378;28;20020;-63
2021/09/10 01:45:17;;;;;;;14.40;4.32;;;461.40;1484.80;;;;;;5097465;28;20031;-63
2021/09/10 01:47:43;;;;;;;7.75;3.85;;;461.40;1484.80;;;;;;5097450;28;20016;-64
2021/09/10 01:50:12;;;;;;;8.65;3.88;;;461.40;1484.80;;;;;;5097191;28;20047;-64
2021/09/10 01:52:38;;;;;;;9.98;4.05;;;461.30;1484.80;;;;;;5095985;28;20024;-63
2021/09/10 01:55:05;;;;;;;10.38;4.15;;;461.30;1484.80;;;;;;5097636;28;20031;-64
2021/09/10 01:57:31;;;;;;;6.05;3.90;;;461.30;1484.80;;;;;;5097003;28;20066;-63
2021/09/10 01:59:57;;;;;;;9.15;3.50;;;461.30;1484.80;;;;;;5095524;28;20511;-64
2021/09/10 02:02:22;;;;;;;9.38;3.63;;;461.30;1484.80;;;;;;5097379;28;20107;-63
2021/09/10 02:04:48;;;;;;;11.05;4.53;;;461.20;1510.40;;;;;;5096443;28;20024;-64
2021/09/10 02:07:14;;;;;;;15.57;4.45;;;461.30;1484.80;;;;;;5097197;28;20048;-64
2021/09/10 02:09:39;;;;;;;12.15;4.60;;;461.30;1484.80;;;;;;5096879;28;20062;-64
2021/09/10 02:12:06;;;;;;;12.98;4.50;;;461.30;1510.40;;;;;;5097116;28;20028;-63
2021/09/10 02:14:35;;;;;;;8.35;3.80;;;461.30;1484.80;;;;;;5097085;28;20020;-64
2021/09/10 02:17:03;;;;;;;14.15;4.97;;;461.20;1510.40;;;;;;5096977;28;20032;-63
2021/09/10 02:19:29;;;;;;;14.40;5.13;;;461.20;1510.40;;;;;;5096624;28;20021;-64
2021/09/10 02:21:54;;;;;;;11.90;4.40;;;461.20;1510.40;;;;;;5095569;28;20081;-64
2021/09/10 02:24:21;;;;;;;9.40;4.60;;;461.20;1510.40;;;;;;5096133;28;20036;-63
2021/09/10 02:26:47;;;;;;;10.18;4.20;;;461.20;1510.40;;;;;;5095367;28;20031;-63
2021/09/10 02:29:13;;;;;;;12.27;4.45;;;461.20;1510.40;;;;;;5095350;28;20433;-64
2021/09/10 02:31:40;;;;;;;12.00;4.50;;;461.20;1510.40;;;;;;5096235;28;20020;-64
2021/09/10 02:34:07;;;;;;;5.55;3.63;;;461.20;1510.40;;;;;;5096664;28;20024;-64
2021/09/10 02:36:34;;;;;;;7.57;3.83;;;461.20;1510.40;;;;;;5096455;28;20027;-64
2021/09/10 02:39:05;;;;;;;8.00;4.43;;;461.20;1510.40;;;;;;5096405;28;20028;-64
2021/09/10 02:41:35;;;;;;;8.05;4.05;;;461.20;1510.40;;;;;;5096237;28;20405;-63
2021/09/10 02:44:04;;;;;;;9.80;4.78;;;461.10;1510.40;;;;;;5094585;28;20028;-64
2021/09/10 02:46:30;;;;;;;11.63;4.82;;;461.10;1536.00;;;;;;5096397;28;20081;-64
2021/09/10 02:48:56;;;;;;;13.52;4.53;;;461.10;1510.40;;;;;;5096185;28;20111;-64
2021/09/10 02:51:21;;;;;;;8.00;5.03;;;461.10;1510.40;;;;;;5095917;28;20042;-66
2021/09/10 02:53:47;;;;;;;9.90;4.70;;;461.10;1510.40;;;;;;5094818;28;20036;-63
2021/09/10 02:56:13;;;;;;;10.75;5.57;;;461.10;1510.40;;;;;;5095598;28;20031;-63
2021/09/10 02:58:39;;;;;;;9.98;5.85;;;461.10;1510.40;;;;;;5095989;28;20365;-64
2021/09/10 03:01:04;;;;;;;15.82;5.90;;;461.10;1510.40;;;;;;5096011;28;20044;-64
2021/09/10 03:03:30;;;;;;;19.13;5.38;;;461.10;1510.40;;;;;;5096077;28;20043;-63
2021/09/10 03:05:56;;;;;;;9.35;4.82;;;461.10;1510.40;;;;;;5094264;28;20464;-64
2021/09/10 03:08:23;;;;;;;13.68;5.60;;;461.10;1510.40;;;;;;5095926;28;20038;-64
2021/09/10 03:10:50;;;;;;;12.77;5.43;;;461.00;1510.40;;;;;;5095694;28;20048;-64
2021/09/10 03:13:16;;;;;;;12.30;5.75;;;461.00;1536.00;;;;;;5095814;28;20361;-64
2021/09/10 03:15:42;;;;;;;11.95;5.35;;;460.90;1510.40;;;;;;5095928;28;20063;-64
2021/09/10 03:18:08;;;;;;;13.13;4.80;;;460.90;1510.40;;;;;;5095704;28;20028;-64
2021/09/10 03:20:34;;;;;;;9.93;4.55;;;460.90;1510.40;;;;;;5095436;28;20370;-64
2021/09/10 03:23:00;;;;;;;7.93;4.68;;;460.90;1510.40;;;;;;5095711;28;20024;-63
2021/09/10 03:25:25;;;;;;;12.25;5.03;;;460.90;1510.40;;;;;;5111160;28;20097;-65
2021/09/10 03:27:51;;;;;;;12.05;5.28;;;460.90;1510.40;;;;;;5095528;28;20028;-64
2021/09/10 03:30:19;;;;;;;13.35;4.85;;;460.90;1510.40;;;;;;5095489;28;20025;-64
2021/09/10 03:32:45;;;;;;;7.53;4.65;;;460.90;1510.40;;;;;;5095317;28;20031;-65
2021/09/10 03:35:11;;;;;;;11.32;4.90;;;460.80;1510.40;;;;;;5094945;28;20024;-65
2021/09/10 03:37:37;;;;;;;8.25;5.10;;;460.80;1510.40;;;;;;5095395;28;20362;-66
2021/09/10 03:40:04;;;;;;;11.43;5.55;;;460.80;1510.40;;;;;;5095550;28;20028;-66
2021/09/10 03:42:30;;;;;;;13.15;5.28;;;436.10;1484.80;;;;;;5095248;28;20107;-66
2021/09/10 03:44:56;;;;;;;10.30;5.18;;;436.10;1484.80;;;;;;5094565;28;20050;-67
2021/09/10 03:47:22;;;;;;;25.38;6.00;;;460.80;1510.40;;;;;;5093535;28;20053;-65
2021/09/10 03:49:47;;;;;;;20.00;7.97;;;436.10;1484.80;;;;;;5094719;28;20028;-66
2021/09/10 03:52:13;;;;;;;9.57;5.43;;;436.00;1484.80;;;;;;5095222;28;20016;-65
2021/09/10 03:54:39;;;;;;;8.73;5.13;;;436.10;1484.80;;;;;;5094181;28;20059;-66
2021/09/10 03:57:06;;;;;;;11.00;5.18;;;436.00;1510.40;;;;;;5094924;28;20021;-66
2021/09/10 03:59:32;;;;;;;14.20;4.97;;;436.00;1510.40;;;;;;5094507;28;20077;-66
2021/09/10 04:01:57;;;;;;;19.35;7.88;;;435.90;1484.80;;;;;;5095091;28;20020;-66
2021/09/10 04:04:32;;;;;;;16.48;6.53;;;435.90;1510.40;;;;;;5094742;28;20377;-66
2021/09/10 04:06:58;;;;;;;10.27;5.07;;;435.90;1510.40;;;;;;5094600;28;20029;-65
2021/09/10 04:09:23;;;;;;;8.35;4.50;;;435.90;1510.40;;;;;;5093958;28;20571;-66
2021/09/10 04:11:49;;;;;;;19.13;4.85;;;435.90;1510.40;;;;;;5094545;28;20507;-66
2021/09/10 04:14:15;;;;;;;11.57;4.60;;;435.90;1510.40;;;;;;5093564;28;20020;-66
2021/09/10 04:16:40;;;;;;;7.70;4.85;;;435.90;1510.40;;;;;;5094281;28;20069;-66
2021/09/10 04:19:06;;;;;;;12.45;4.55;;;435.90;1510.40;;;;;;5094600;28;20024;-66
2021/09/10 04:21:32;;;;;;;7.28;4.18;;;435.90;1510.40;;;;;;5094619;28;20032;-66
2021/09/10 04:23:58;;;;;;;7.07;4.50;;;435.80;1510.40;;;;;;5094584;28;20051;-66
2021/09/10 04:26:23;;;;;;;10.30;4.07;;;435.80;1510.40;;;;;;5092729;28;20032;-66
2021/09/10 04:28:49;;;;;;;9.02;3.53;;;435.80;1510.40;;;;;;5094569;28;20028;-66
2021/09/10 04:31:17;;;;;;;10.45;4.35;;;435.80;1510.40;;;;;;5094246;28;20090;-66
2021/09/10 04:33:45;;;;;;;11.52;4.60;;;435.80;1510.40;;;;;;5094388;28;20085;-66
2021/09/10 04:36:11;;;;;;;11.38;4.22;;;435.80;1510.40;;;;;;5092854;28;20032;-66
2021/09/10 04:38:37;;;;;;;10.48;3.72;;;435.70;1510.40;;;;;;5093958;28;20029;-66
2021/09/10 04:41:03;;;;;;;11.55;4.47;;;435.70;1510.40;;;;;;5093590;28;20028;-66
2021/09/10 04:43:28;;;;;;;10.13;4.15;;;435.70;1510.40;;;;;;5093828;28;20517;-66
2021/09/10 04:45:54;;;;;;;9.15;4.32;;;435.70;1510.40;;;;;;5094218;28;20073;-66
2021/09/10 04:48:20;;;;;;;10.90;4.45;;;435.70;1510.40;;;;;;5094313;28;20027;-66
2021/09/10 04:50:45;;;;;;;11.63;4.53;;;435.70;1510.40;;;;;;5093782;28;20038;-66
2021/09/10 04:53:11;;;;;;;7.90;4.50;;;435.70;1536.00;;;;;;5094090;28;20542;-66
2021/09/10 04:55:37;;;;;;;13.93;4.78;;;435.70;1536.00;;;;;;5093982;28;20020;-66
2021/09/10 04:58:02;;;;;;;11.88;4.70;;;435.70;1536.00;;;;;;5093875;28;20412;-66
2021/09/10 05:00:28;;;;;;;15.07;5.25;;;435.70;1536.00;;;;;;5092439;28;20114;-66
2021/09/10 05:02:54;;;;;;;8.98;3.85;;;435.70;1536.00;;;;;;5093884;28;20361;-66
2021/09/10 05:05:20;;;;;;;6.78;4.07;;;435.70;1536.00;;;;;;5093402;28;20571;-66
2021/09/10 05:07:45;;;;;;;17.23;4.43;;;435.70;1536.00;;;;;;5093644;28;20024;-66
2021/09/10 05:10:11;;;;;;;11.00;4.10;;;435.70;1536.00;;;;;;5092903;28;20128;-66
2021/09/10 05:12:37;;;;;;;11.35;4.45;;;435.80;1536.00;;;;;;5093608;28;20024;-66
2021/09/10 05:15:03;;;;;;;6.50;3.97;;;435.80;1510.40;;;;;;5093666;28;20035;-66
2021/09/10 05:17:29;;;;;;;10.60;4.38;;;435.80;1536.00;;;;;;5093467;28;20054;-66
2021/09/10 05:19:55;;;;;;;12.95;4.28;;;435.90;1536.00;;;;;;5093494;28;20031;-66
2021/09/10 05:22:20;;;;;;;14.32;3.75;;;435.90;1536.00;;;;;;5092119;28;20465;-67
2021/09/10 05:24:46;;;;;;;10.35;3.78;;;435.90;1536.00;;;;;;5093779;28;20104;-67
2021/09/10 05:27:12;;;;;;;10.55;3.60;;;436.00;1510.40;;;;;;5092229;28;20073;-66
2021/09/10 05:29:38;;;;;;;12.32;4.63;;;436.00;1510.40;;;;;;5093871;28;20035;-66
2021/09/10 05:32:04;;;;;;;9.60;4.57;;;436.00;1536.00;;;;;;5093663;28;20051;-66
2021/09/10 05:34:29;;;;;;;8.07;3.22;;;436.10;1510.40;;;;;;5093336;28;20020;-66
2021/09/10 05:36:55;;;;;;;7.97;4.00;;;460.80;1536.00;;;;;;5093510;28;20362;-66
2021/09/10 05:39:21;;;;;;;12.10;3.67;;;460.80;1536.00;;;;;;5093527;28;20032;-66
2021/09/10 05:41:47;;;;;;;15.07;4.18;;;460.80;1536.00;;;;;;5091820;28;20035;-66
2021/09/10 05:44:14;;;;;;;10.10;3.50;;;460.90;1536.00;;;;;;5093575;28;20369;-66
2021/09/10 05:46:40;;;;;;;12.57;3.58;;;460.90;1536.00;;;;;;5093576;28;20016;-66
2021/09/10 05:49:05;;;;;;;8.90;3.53;;;460.90;1536.00;;;;;;5093423;28;20027;-66
2021/09/10 05:51:31;;;;;;;10.95;3.80;;;461.00;1536.00;;;;;;5092746;28;20055;-66
2021/09/10 05:53:57;;;;;;;7.00;3.60;;;461.00;1536.00;;;;;;5093323;28;20478;-66
2021/09/10 05:56:22;;;;;;;7.10;3.30;;;461.00;1536.00;;;;;;5093436;28;20021;-66
2021/09/10 05:58:48;;;;;;;9.75;4.03;;;461.10;1536.00;;;;;;5091804;28;20040;-66
2021/09/10 06:01:14;;;;;;;5.75;4.00;;;461.10;1536.00;;;;;;5093377;28;20509;-66
2021/09/10 06:03:39;;;;;;;10.95;4.65;;;461.20;1536.00;;;;;;5093135;28;20070;-66
2021/09/10 06:06:08;;;;;;;7.50;4.57;;;461.20;1536.00;;;;;;5093086;28;20024;-66
2021/09/10 06:08:35;;;;;;;8.75;3.70;;;461.20;1536.00;;;;;;5093291;28;20028;-66
2021/09/10 06:11:01;;;;;;;7.90;4.25;;;461.20;1536.00;;;;;;5092879;28;20036;-65
2021/09/10 06:13:26;;;;;;;8.25;4.40;;;461.30;1536.00;;;;;;5092912;28;20039;-66
2021/09/10 06:15:52;;;;;;;6.82;4.38;;;461.30;1536.00;;;;;;5093039;28;20055;-66
2021/09/10 06:18:18;;;;;;;8.55;4.95;;;461.40;1536.00;;;;;;5095693;28;20350;-66
2021/09/10 06:20:43;;;;;;;7.28;4.95;;;461.50;1510.40;;;;;;5096445;28;20067;-66
2021/09/10 06:23:09;;;;;;;9.90;5.07;;;461.50;1510.40;;;;;;5096756;28;20534;-66
2021/09/10 06:25:35;;;;;;;16.65;4.80;;;461.50;1510.40;;;;;;5094814;28;20039;-66
2021/09/10 06:28:00;;;;;;;8.15;4.00;;;461.50;1510.40;;;;;;5096749;28;20047;-66
2021/09/10 06:30:26;;;;;;;9.57;4.38;;;461.60;1536.00;;;;;;5096470;28;20032;-66
2021/09/10 06:32:52;;;;;;;5.50;3.78;;;461.60;1510.40;;;;;;5096587;28;20077;-66
2021/09/10 06:35:18;;;;;;;16.83;4.43;;;461.70;1510.40;;;;;;5096445;28;20077;-66
2021/09/10 06:37:44;;;;;;;14.18;4.00;;;486.40;1536.00;;;;;;5096556;28;20107;-66
2021/09/10 06:40:11;;;;;;;9.02;4.20;;;486.40;1510.40;;;;;;5096545;28;20060;-66
2021/09/10 06:42:37;;;;;;;7.18;4.57;;;486.50;1510.40;;;;;;5095978;28;20051;-66
2021/09/10 06:45:03;;;;;;;8.30;4.22;;;486.50;1510.40;;;;;;5096807;28;20417;-66
2021/09/10 06:47:29;;;;;;;8.15;4.93;;;486.60;1510.40;;;;;;5096149;28;20119;-66
2021/09/10 06:49:55;;;;;;;8.45;4.05;;;486.70;1510.40;;;;;;5096108;28;20110;-66
2021/09/10 06:52:21;;;;;;;6.57;4.18;;;486.80;1510.40;;;;;;5096208;28;20028;-66
2021/09/10 06:54:47;;;;;;;8.48;4.28;;;486.90;1510.40;;;;;;5095726;28;20026;-66
2021/09/10 06:57:13;;;;;;;9.65;5.70;;;486.90;1484.80;;;;;;5095989;28;20020;-66
2021/09/10 06:59:38;;;;;;;10.07;5.53;;;487.00;1510.40;;;;;;5096197;28;20024;-66
2021/09/10 07:02:04;;;;;;;13.00;5.15;;;487.10;1484.80;;;;;;5096096;28;20129;-66
2021/09/10 07:04:30;;;;;;;13.82;5.68;;;487.20;1484.80;;;;;;5095870;28;20470;-66
2021/09/10 07:06:56;;;;;;;8.85;4.45;;;487.30;1484.80;;;;;;5095811;28;20028;-66
2021/09/10 07:09:22;;;;;;;14.20;4.20;;;512.10;1459.20;;;;;;5095734;28;20354;-66
2021/09/10 07:11:48;;;;;;;10.02;4.57;;;512.20;1433.60;;;;;;5095647;28;20354;-66
2021/09/10 07:14:14;;;;;;;12.70;4.78;;;512.40;1433.60;;;;;;5095876;28;20027;-66
2021/09/10 07:16:40;;;;;;;10.68;4.03;;;512.50;1408.00;;;;;;5095760;28;20016;-66
2021/09/10 07:19:05;;;;;;;8.63;3.88;;;512.90;1382.40;;;;;;5095487;28;20080;-65
2021/09/10 07:21:31;;;;;;;12.07;3.97;;;537.60;1356.80;;;;;;5094315;28;20039;-66
2021/09/10 07:23:57;;;;;;;13.95;6.25;;;537.80;1356.80;;;;;;5093997;28;20471;-65
2021/09/10 07:26:24;;;;;;;8.02;4.10;;;538.00;1356.80;;;;;;5095497;28;20020;-66
2021/09/10 07:28:50;;;;;;;10.07;4.05;;;538.10;1331.20;;;;;;5093951;28;20028;-65
2021/09/10 07:31:16;;;;;;;9.23;3.88;;;538.40;1305.60;;;;;;5093834;28;20090;-66
2021/09/10 07:33:43;;;;;;;7.82;3.33;;;563.20;1305.60;;;;;;5095212;28;20099;-66
2021/09/10 07:36:09;;;;;;;6.80;3.08;;;563.40;1305.60;;;;;;5095103;28;20039;-65
2021/09/10 07:38:35;;;;;;;10.10;3.33;;;563.60;1280.00;;;;;;5094987;28;20418;-66
2021/09/10 07:41:01;;;;;;;11.60;3.63;;;563.80;1254.40;;;;;;5093513;28;20030;-65
2021/09/10 07:43:28;;;;;;;15.25;4.93;;;564.00;1228.80;;;;;;5094950;28;20027;-66
2021/09/10 07:45:54;;;;;;;13.68;4.70;;;588.80;1203.20;;;;;;5094741;28;20036;-66
2021/09/10 07:48:19;;;;;;;10.45;4.50;;;589.00;1177.60;;;;;;5095102;28;20099;-66
2021/09/10 07:50:45;;;;;;;9.75;4.82;;;589.20;1177.60;;;;;;5094985;28;20082;-66
2021/09/10 07:53:11;;;;;;;9.18;4.03;;;589.40;1177.60;;;;;;5095100;28;20489;-65
2021/09/10 07:55:38;;;;;;;9.98;4.13;;;589.50;1177.60;;;;;;5094881;28;20024;-66
2021/09/10 07:58:04;;;;;;;12.95;4.50;;;589.60;1152.00;;;;;;5094780;28;20096;-66
2021/09/10 08:00:29;;;;;;;10.25;3.60;;;614.40;1126.40;;;;;;5094805;28;20099;-66
2021/09/10 08:02:55;;;;;;;9.35;3.67;;;614.60;1100.80;;;;;;5094870;28;20146;-66
2021/09/10 08:05:21;;;;;;;14.20;4.45;;;614.70;1100.80;;;;;;5094851;28;20028;-66
2021/09/10 08:07:47;;;;;;;9.95;3.90;;;614.90;1075.20;;;;;;5094434;28;20020;-66
2021/09/10 08:10:17;;;;;;;14.80;4.30;;;615.00;1075.20;;;;;;5093888;28;20362;-66
2021/09/10 08:12:47;;;;;;;6.18;3.55;;;615.00;1075.20;;;;;;5094419;28;20031;-66
2021/09/10 08:15:17;;;;;;;11.38;4.45;;;615.10;1075.20;;;;;;5092858;28;20040;-67
2021/09/10 08:17:43;;;;;;;7.38;3.00;;;615.20;1049.60;;;;;;5093205;28;20028;-66
2021/09/10 08:20:11;;;;;;;8.50;3.47;;;615.30;1049.60;;;;;;5094239;28;20032;-65
2021/09/10 08:22:38;;;;;;;9.63;5.03;;;640.10;1024.00;;;;;;5092659;28;20028;-68
2021/09/10 08:25:06;;;;;;;8.35;3.88;;;640.20;972.80;;;;;;5094291;28;20032;-66
2021/09/10 08:27:31;;;;;;;8.82;3.90;;;640.40;947.20;;;;;;5094349;28;20012;-66
2021/09/10 08:29:58;;;;;;;9.45;3.20;;;640.60;947.20;;;;;;5092551;28;20032;-65
2021/09/10 08:32:25;;;;;;;6.93;3.70;;;640.70;921.60;;;;;;5093334;28;20111;-65
2021/09/10 08:34:52;;;;;;;12.55;4.47;;;640.80;921.60;;;;;;5093378;28;20024;-65
2021/09/10 08:37:18;;;;;;;8.85;3.95;;;640.90;921.60;;;;;;5093727;28;20423;-65
2021/09/10 08:39:44;;;;;;;13.30;4.97;;;665.60;947.20;;;;;;5093989;28;20020;-65
2021/09/10 08:42:10;;;;;;;6.78;3.70;;;665.80;947.20;;;;;;5093072;28;20085;-67
2021/09/10 08:44:41;;;;;;;8.90;3.60;;;666.00;921.60;;;;;;5093211;28;20020;-64
2021/09/10 08:47:08;;;;;;;10.85;3.67;;;666.00;896.00;;;;;;5089641;28;20031;-65
2021/09/10 08:49:34;;;;;;;16.30;4.43;;;666.10;896.00;;;;;;5093144;28;20369;-65
2021/09/10 08:52:00;;;;;;;9.88;4.45;;;666.30;870.40;;;;;;5093151;28;20028;-65
2021/09/10 08:54:26;;;;;;;9.23;5.35;;;666.40;870.40;;;;;;5093098;28;20477;-66
2021/09/10 08:56:53;;;;;;;15.63;4.07;;;666.50;844.80;;;;;;5093233;28;20103;-66
2021/09/10 08:59:20;;;;;;;12.75;4.30;;;691.20;844.80;;;;;;5093507;28;20020;-66
2021/09/10 09:01:53;;;;;;;8.73;3.33;;;691.30;844.80;;;;;;5093444;28;20028;-66
2021/09/10 09:04:20;;;;;;;9.77;3.42;;;691.40;819.20;;;;;;5093907;28;20023;-66
2021/09/10 09:06:51;;;;;;;13.10;4.35;;;691.50;844.80;;;;;;5093496;28;20024;-66
2021/09/10 09:09:41;;;;;;;12.23;4.38;;;691.50;844.80;;;;;;5092167;28;20024;-65
2021/09/10 09:12:20;;;;;;;15.32;3.47;;;691.60;844.80;;;;;;5093594;28;20056;-67
2021/09/10 09:15:07;;;;;;;10.95;5.13;;;691.70;844.80;;;;;;5087738;28;20024;-66
2021/09/10 09:17:38;;;;;;;28.02;4.93;;;691.80;819.20;;;;;;5093878;28;20032;-66
2021/09/10 09:20:25;;;;;;;15.30;3.40;;;691.80;793.60;;;;;;5093352;28;20105;-67
2021/09/10 09:23:03;;;;;;;5.38;3.47;;;692.00;793.60;;;;;;5093636;28;20365;-66
2021/09/10 09:25:40;;;;;;;7.53;3.53;;;692.00;819.20;;;;;;5093689;28;20024;-66
2021/09/10 09:28:18;;;;;;;8.55;3.38;;;692.00;793.60;;;;;;5093296;28;20021;-66
2021/09/10 09:30:45;;;;;;;11.07;3.40;;;692.00;819.20;;;;;;5093425;28;20036;-66
2021/09/10 09:33:14;;;;;;;14.70;4.07;;;716.80;819.20;;;;;;5093704;28;20016;-66
2021/09/10 09:35:41;;;;;;;12.90;4.50;;;716.80;844.80;;;;;;5092112;28;20343;-66
2021/09/10 09:38:16;;;;;;;12.40;3.70;;;716.90;819.20;;;;;;5092329;28;20137;-66
2021/09/10 09:40:43;;;;;;;12.00;3.33;;;716.90;819.20;;;;;;5093243;28;20028;-66
2021/09/10 09:43:21;;;;;;;21.25;4.05;;;717.00;819.20;;;;;;5093576;28;20024;-66
2021/09/10 09:45:50;;;;;;;13.25;3.70;;;717.00;819.20;;;;;;5093310;28;20020;-66
2021/09/10 09:48:18;;;;;;;11.20;3.97;;;717.00;819.20;;;;;;5093604;28;20026;-66
2021/09/10 09:50:45;;;;;;;10.93;3.33;;;717.00;819.20;;;;;;5092050;28;20040;-67
2021/09/10 09:53:12;;;;;;;17.83;3.60;;;717.10;819.20;;;;;;5095618;28;20028;-66
2021/09/10 09:55:39;;;;;;;13.88;3.33;;;717.20;793.60;;;;;;5097032;28;20027;-66
2021/09/10 09:58:06;;;;;;;8.85;3.47;;;717.20;819.20;;;;;;5097156;28;20016;-66
2021/09/10 10:00:40;;;;;;;12.02;3.83;;;717.20;819.20;;;;;;5097111;28;20024;-67
2021/09/10 10:03:06;;;;;;;15.35;4.18;;;717.20;819.20;;;;;;5097399;28;20030;-66
2021/09/10 10:05:43;;;;;;;14.27;3.42;;;717.30;819.20;;;;;;5096882;28;20063;-67
2021/09/10 10:08:13;;;;;;;8.07;3.42;;;717.30;819.20;;;;;;5097156;28;20024;-66
2021/09/10 10:10:47;;;;;;;6.82;3.22;;;717.40;819.20;;;;;;5096627;28;20047;-66
2021/09/10 10:13:21;;;;;;;9.13;2.83;;;717.40;793.60;;;;;;5097120;28;20103;-65
2021/09/10 10:15:48;;;;;;;10.45;2.72;;;717.50;793.60;;;;;;5096808;28;20404;-66
2021/09/10 10:18:39;;;;;;;7.10;3.28;;;717.50;793.60;;;;;;5096860;28;20044;-66
2021/09/10 10:21:06;;;;;;;9.68;3.00;;;717.50;819.20;;;;;;5096673;28;20044;-66
2021/09/10 10:23:55;;;;;;;17.45;2.88;;;717.50;793.60;;;;;;5097337;28;20107;-66
2021/09/10 10:26:47;;;;;;;9.45;3.03;;;717.60;793.60;;;;;;5096833;28;20028;-66
2021/09/10 10:29:16;;;;;;;7.13;2.80;;;717.70;768.00;;;;;;5093978;28;20039;-65
2021/09/10 10:32:02;;;;;;;14.05;3.08;;;717.70;768.00;;;;;;5096574;28;20031;-66
2021/09/10 10:34:29;;;;;;;10.77;2.95;;;742.40;793.60;;;;;;5095297;28;20031;-66
2021/09/10 10:36:55;;;;;;;9.20;2.85;;;742.40;819.20;;;;;;5096449;28;20021;-66
2021/09/10 10:39:31;;;;;;;11.48;2.55;;;742.40;793.60;;;;;;5096490;28;20024;-66
2021/09/10 10:42:06;;;;;;;13.00;3.05;;;742.40;793.60;;;;;;5096332;28;20028;-65
2021/09/10 10:44:34;;;;;;;10.10;3.20;;;742.50;768.00;;;;;;5096363;28;20036;-67
2021/09/10 10:47:08;;;;;;;10.60;2.45;;;742.50;793.60;;;;;;5096323;28;20020;-66
2021/09/10 10:49:36;;;;;;;6.38;2.25;;;742.50;768.00;;;;;;5096047;28;20024;-66
2021/09/10 10:52:21;;;;;;;9.40;2.92;;;742.50;768.00;;;;;;5096151;28;20115;-66
2021/09/10 10:54:47;;;;;;;10.88;2.67;;;742.50;793.60;;;;;;5095993;28;20027;-66
2021/09/10 10:57:27;;;;;;;6.90;2.47;;;742.50;793.60;;;;;;5094854;28;20377;-66
2021/09/10 10:59:53;;;;;;;4.28;2.80;;;742.50;793.60;;;;;;5096108;28;20035;-66
2021/09/10 11:02:28;;;;;;;12.88;3.08;;;742.60;793.60;;;;;;5095875;28;20020;-66
2021/09/10 11:05:05;;;;;;;8.05;3.15;;;742.50;793.60;;;;;;5095676;28;20054;-66
2021/09/10 11:07:31;;;;;;;13.82;3.13;;;742.50;793.60;;;;;;5095897;28;20020;-66
2021/09/10 11:10:01;;;;;;;9.50;2.90;;;742.50;793.60;;;;;;5095458;28;20388;-66
2021/09/10 11:12:27;;;;;;;6.03;2.88;;;742.60;793.60;;;;;;5094525;28;20035;-66
2021/09/10 11:14:53;;;;;;;12.00;2.72;;;742.60;793.60;;;;;;5095704;28;20123;-66
2021/09/10 11:17:26;;;;;;;12.25;2.80;;;742.60;793.60;;;;;;5095238;28;20097;-66
2021/09/10 11:19:54;;;;;;;6.38;2.45;;;742.70;768.00;;;;;;5095843;28;20024;-66
2021/09/10 11:22:20;;;;;;;6.43;2.47;;;742.70;768.00;;;;;;5094203;28;20021;-66
2021/09/10 11:24:47;;;;;;;9.45;3.05;;;742.70;768.00;;;;;;5095684;28;20025;-67
2021/09/10 11:27:29;;;;;;;12.25;3.17;;;742.80;768.00;;;;;;5095749;28;20039;-66
2021/09/10 11:30:03;;;;;;;14.13;3.20;;;742.80;768.00;;;;;;5095415;28;20028;-67
2021/09/10 11:32:28;;;;;;;7.90;2.80;;;742.80;768.00;;;;;;5094088;28;20043;-66
2021/09/10 11:34:54;;;;;;;10.68;2.70;;;742.90;768.00;;;;;;5095376;28;20028;-66
2021/09/10 11:37:28;;;;;;;8.38;3.47;;;742.90;742.40;;;;;;5095365;28;20020;-65
2021/09/10 11:39:54;;;;;;;18.65;4.63;;;742.90;742.40;;;;;;5095338;28;20036;-65
2021/09/10 11:42:40;;;;;;;16.45;4.32;;;742.90;768.00;;;;;;5095581;28;20039;-66
2021/09/10 11:45:11;;;;;;;10.15;3.50;;;743.10;742.40;;;;;;5095338;28;20016;-66
2021/09/10 11:47:37;;;;;;;9.38;3.80;;;743.10;716.80;;;;;;5095326;28;20115;-66
2021/09/10 11:50:10;;;;;;;7.28;2.83;;;743.10;742.40;;;;;;5094972;28;20130;-66
2021/09/10 11:52:39;;;;;;;8.25;3.28;;;743.10;716.80;;;;;;5095229;28;20032;-66
2021/09/10 11:55:09;;;;;;;8.88;3.40;;;743.10;742.40;;;;;;5095008;28;20031;-66
2021/09/10 11:57:35;;;;;;;7.80;3.38;;;743.10;742.40;;;;;;5094928;28;20031;-66
2021/09/10 12:00:01;;;;;;;7.53;2.75;;;743.10;768.00;;;;;;5095054;28;20024;-66
2021/09/10 12:02:27;;;;;;;17.95;3.20;;;743.10;742.40;;;;;;5094964;28;20358;-66
2021/09/10 12:04:57;;;;;;;6.30;3.03;;;743.10;742.40;;;;;;5094899;28;20105;-66
2021/09/10 12:07:28;;;;;;;9.80;3.40;;;743.10;742.40;;;;;;5094633;28;20423;-66
2021/09/10 12:09:54;;;;;;;7.82;3.15;;;743.20;742.40;;;;;;5094182;28;20401;-65
2021/09/10 12:12:24;;;;;;;10.60;3.13;;;743.10;742.40;;;;;;5092896;28;20032;-65
2021/09/10 12:14:52;;;;;;;10.88;3.78;;;743.10;742.40;;;;;;5093763;28;20432;-65
2021/09/10 12:17:24;;;;;;;6.30;3.13;;;743.10;742.40;;;;;;5094987;28;20035;-66